createdAt,value
2018-04-22T00:01:27.639Z,95646.05
2018-04-22T00:03:55.172Z,95650.45
2018-04-22T00:06:22.994Z,95651.22
2018-04-22T00:08:50.600Z,95653.77
2018-04-22T00:11:18.132Z,95644.16
2018-04-22T00:13:45.682Z,95642.25
2018-04-22T00:16:13.506Z,95638.53
2018-04-22T00:18:41.047Z,95632.20
2018-04-22T00:21:08.579Z,95637.88
2018-04-22T00:23:36.115Z,95639.69
2018-04-22T00:26:03.652Z,95636.96
2018-04-22T00:28:31.183Z,95637.99
2018-04-22T00:30:58.726Z,95650.71
2018-04-22T00:33:26.255Z,95640.23
2018-04-22T00:35:53.868Z,95645.98
2018-04-22T00:38:21.420Z,95646.85
2018-04-22T00:40:48.943Z,95641.64
2018-04-22T00:43:16.493Z,95651.95
2018-04-22T00:45:44.078Z,95650.27
2018-04-22T00:48:11.646Z,95653.48
2018-04-22T00:50:39.183Z,95655.42
2018-04-22T00:53:06.728Z,95656.12
2018-04-22T00:55:34.274Z,95656.52
2018-04-22T00:58:01.807Z,95650.70
2018-04-22T01:00:29.385Z,95644.22
2018-04-22T01:02:56.932Z,95651.61
2018-04-22T01:05:24.472Z,95642.93
2018-04-22T01:07:52.052Z,95648.92
2018-04-22T01:10:19.597Z,95661.73
2018-04-22T01:12:47.127Z,95656.56
2018-04-22T01:15:14.661Z,95661.36
2018-04-22T01:17:42.222Z,95665.11
2018-04-22T01:20:09.808Z,95668.84
2018-04-22T01:22:37.358Z,95663.84
2018-04-22T01:25:04.940Z,95663.45
2018-04-22T01:27:32.480Z,95661.77
2018-04-22T01:30:00.011Z,95653.16
2018-04-22T01:32:27.572Z,95655.75
2018-04-22T01:34:55.134Z,95652.00
2018-04-22T01:37:22.666Z,95646.22
2018-04-22T01:39:50.200Z,95650.06
2018-04-22T01:42:17.759Z,95643.59
2018-04-22T01:44:45.304Z,95630.34
2018-04-22T01:47:12.835Z,95640.16
2018-04-22T01:49:40.408Z,95643.38
2018-04-22T01:52:07.946Z,95646.05
2018-04-22T01:54:35.532Z,95633.47
2018-04-22T01:57:03.155Z,95631.45
2018-04-22T01:59:30.688Z,95636.80
2018-04-22T02:01:58.280Z,95623.27
2018-04-22T02:04:25.821Z,95617.41
2018-04-22T02:06:53.377Z,95614.38
2018-04-22T02:09:20.905Z,95619.37
2018-04-22T02:11:48.432Z,95616.58
2018-04-22T02:14:15.982Z,95622.69
2018-04-22T02:16:43.567Z,95622.42
2018-04-22T02:19:11.112Z,95618.73
2018-04-22T02:21:38.674Z,95621.09
2018-04-22T02:24:06.211Z,95623.73
2018-04-22T02:26:33.788Z,95614.94
2018-04-22T02:29:01.572Z,95622.28
2018-04-22T02:31:29.141Z,95620.97
2018-04-22T02:33:56.701Z,95609.52
2018-04-22T02:36:24.255Z,95617.06
2018-04-22T02:38:51.839Z,95610.92
2018-04-22T02:41:19.378Z,95610.13
2018-04-22T02:43:46.912Z,95608.03
2018-04-22T02:46:14.444Z,95611.98
2018-04-22T02:48:41.986Z,95613.04
2018-04-22T02:51:09.575Z,95612.74
2018-04-22T02:53:37.118Z,95613.90
2018-04-22T02:56:04.727Z,95613.44
2018-04-22T02:58:32.293Z,95598.53
2018-04-22T03:00:59.935Z,95612.34
2018-04-22T03:03:27.501Z,95601.58
2018-04-22T03:05:55.039Z,95602.87
2018-04-22T03:08:22.584Z,95591.96
2018-04-22T03:10:50.120Z,95601.18
2018-04-22T03:13:17.705Z,95610.87
2018-04-22T03:15:45.251Z,95607.83
2018-04-22T03:18:12.826Z,95609.19
2018-04-22T03:20:41.359Z,95608.79
2018-04-22T03:23:08.892Z,95617.69
2018-04-22T03:25:36.441Z,95623.38
2018-04-22T03:28:04.029Z,95633.22
2018-04-22T03:30:31.627Z,95624.13
2018-04-22T03:32:59.161Z,95625.81
2018-04-22T03:35:26.695Z,95623.30
2018-04-22T03:37:54.237Z,95625.34
2018-04-22T03:40:21.826Z,95632.21
2018-04-22T03:42:49.373Z,95631.27
2018-04-22T03:45:16.906Z,95629.98
2018-04-22T03:47:44.459Z,95643.39
2018-04-22T03:50:12.066Z,95643.66
2018-04-22T03:52:39.601Z,95657.98
2018-04-22T03:55:07.143Z,95659.48
2018-04-22T03:57:34.723Z,95665.69
2018-04-22T04:00:02.264Z,95672.02
2018-04-22T04:02:29.844Z,95674.63
2018-04-22T04:04:57.432Z,95668.36
2018-04-22T04:07:24.971Z,95677.95
2018-04-22T04:09:52.523Z,95649.59
2018-04-22T04:12:20.069Z,95665.75
2018-04-22T04:14:47.605Z,95664.91
2018-04-22T04:17:15.129Z,95662.12
2018-04-22T04:19:54.471Z,95666.75
2018-04-22T04:22:34.012Z,95666.71
2018-04-22T04:25:40.054Z,95660.16
2018-04-22T04:28:07.607Z,95652.69
2018-04-22T04:30:35.189Z,95649.23
2018-04-22T04:33:02.764Z,95622.41
2018-04-22T04:35:30.305Z,95656.78
2018-04-22T04:37:57.884Z,95649.42
2018-04-22T04:40:25.435Z,95649.53
2018-04-22T04:42:52.962Z,95644.35
2018-04-22T04:45:20.505Z,95643.70
2018-04-22T04:47:48.036Z,95652.64
2018-04-22T04:50:15.578Z,95645.56
2018-04-22T04:52:43.151Z,95652.75
2018-04-22T04:55:10.742Z,95644.66
2018-04-22T04:57:38.280Z,95641.36
2018-04-22T05:00:06.340Z,95649.05
2018-04-22T05:02:33.976Z,95640.67
2018-04-22T05:05:01.557Z,95643.91
2018-04-22T05:07:29.103Z,95638.41
2018-04-22T05:09:56.626Z,95631.00
2018-04-22T05:12:24.179Z,95634.46
2018-04-22T05:14:51.935Z,95628.18
2018-04-22T05:17:19.485Z,95633.16
2018-04-22T05:19:47.015Z,95628.30
2018-04-22T05:22:14.553Z,95629.53
2018-04-22T05:24:42.124Z,95631.15
2018-04-22T05:27:09.690Z,95629.70
2018-04-22T05:29:37.591Z,95618.41
2018-04-22T05:32:05.150Z,95622.34
2018-04-22T05:34:32.696Z,95616.95
2018-04-22T05:37:00.240Z,95625.64
2018-04-22T05:39:27.790Z,95626.16
2018-04-22T05:41:55.331Z,95627.42
2018-04-22T05:44:22.919Z,95623.12
2018-04-22T05:46:50.467Z,95625.63
2018-04-22T05:49:18.032Z,95624.59
2018-04-22T05:51:45.579Z,95630.91
2018-04-22T05:54:13.131Z,95635.20
2018-04-22T05:56:40.685Z,95626.03
2018-04-22T05:59:10.741Z,95629.27
2018-04-22T06:01:38.288Z,95628.18
2018-04-22T06:04:05.831Z,95627.08
2018-04-22T06:06:33.443Z,95623.51
2018-04-22T06:09:00.991Z,95631.41
2018-04-22T06:11:28.563Z,95633.02
2018-04-22T06:13:56.143Z,95630.19
2018-04-22T06:16:23.680Z,95632.40
2018-04-22T06:18:51.233Z,95631.03
2018-04-22T06:21:18.800Z,95622.66
2018-04-22T06:23:46.378Z,95626.75
2018-04-22T06:26:13.924Z,95622.62
2018-04-22T06:28:41.485Z,95623.54
2018-04-22T06:31:09.071Z,95619.08
2018-04-22T06:33:36.633Z,95614.99
2018-04-22T06:36:04.214Z,95609.25
2018-04-22T06:38:31.756Z,95612.81
2018-04-22T06:40:59.323Z,95613.38
2018-04-22T06:43:26.947Z,95607.06
2018-04-22T06:45:54.474Z,95605.18
2018-04-22T06:48:22.052Z,95605.20
2018-04-22T06:50:49.596Z,95608.71
2018-04-22T06:53:17.145Z,95597.04
2018-04-22T06:55:44.707Z,95588.63
2018-04-22T06:58:12.249Z,95596.41
2018-04-22T07:00:39.795Z,95580.09
2018-04-22T07:03:07.328Z,95587.84
2018-04-22T07:05:34.868Z,95587.50
2018-04-22T07:08:02.477Z,95587.96
2018-04-22T07:10:30.032Z,95571.58
2018-04-22T07:12:57.672Z,95593.93
2018-04-22T07:15:25.214Z,95590.69
2018-04-22T07:17:52.751Z,95596.48
2018-04-22T07:20:20.303Z,95584.69
2018-04-22T07:22:47.882Z,95579.42
2018-04-22T07:25:16.239Z,95567.52
2018-04-22T07:27:43.795Z,95585.83
2018-04-22T07:30:11.397Z,95578.05
2018-04-22T07:32:38.987Z,95585.17
2018-04-22T07:35:06.565Z,95582.80
2018-04-22T07:37:34.120Z,95584.41
2018-04-22T07:40:01.671Z,95578.06
2018-04-22T07:42:29.317Z,95577.75
2018-04-22T07:44:56.871Z,95581.81
2018-04-22T07:47:24.691Z,95572.30
2018-04-22T07:49:52.231Z,95575.84
2018-04-22T07:52:19.820Z,95563.37
2018-04-22T07:54:47.356Z,95582.80
2018-04-22T07:57:14.895Z,95586.19
2018-04-22T07:59:42.469Z,95573.14
2018-04-22T08:02:10.035Z,95576.83
2018-04-22T08:04:37.622Z,95580.54
2018-04-22T08:07:05.168Z,95573.58
2018-04-22T08:09:32.721Z,95577.91
2018-04-22T08:12:00.269Z,95575.36
2018-04-22T08:14:27.812Z,95564.17
2018-04-22T08:16:55.371Z,95570.05
2018-04-22T08:19:22.934Z,95567.31
2018-04-22T08:21:50.533Z,95565.42
2018-04-22T08:24:18.079Z,95563.04
2018-04-22T08:26:45.649Z,95559.74
2018-04-22T08:29:13.199Z,95555.97
2018-04-22T08:31:40.803Z,95561.09
2018-04-22T08:34:08.499Z,95558.43
2018-04-22T08:36:36.079Z,95562.73
2018-04-22T08:39:03.654Z,95560.08
2018-04-22T08:41:31.283Z,95545.70
2018-04-22T08:43:58.867Z,95551.02
2018-04-22T08:46:26.413Z,95543.84
2018-04-22T08:48:53.967Z,95549.77
2018-04-22T08:51:21.505Z,95544.98
2018-04-22T08:53:49.031Z,95540.56
2018-04-22T08:56:16.618Z,95545.02
2018-04-22T08:58:44.163Z,95534.41
2018-04-22T09:01:11.765Z,95527.52
2018-04-22T09:03:39.348Z,95529.13
2018-04-22T09:06:06.900Z,95525.23
2018-04-22T09:08:34.428Z,95518.96
2018-04-22T09:11:01.968Z,95511.63
2018-04-22T09:13:29.532Z,95506.86
2018-04-22T09:15:57.182Z,95496.16
2018-04-22T09:18:24.752Z,95507.50
2018-04-22T09:20:52.274Z,95502.45
2018-04-22T09:23:19.836Z,95508.41
2018-04-22T09:25:47.421Z,95501.70
2018-04-22T09:28:14.998Z,95499.16
2018-04-22T09:30:42.596Z,95501.85
2018-04-22T09:33:10.188Z,95490.30
2018-04-22T09:35:37.707Z,95491.77
2018-04-22T09:38:05.252Z,95490.16
2018-04-22T09:40:32.816Z,95483.51
2018-04-22T09:43:00.351Z,95477.42
2018-04-22T09:45:27.884Z,95481.61
2018-04-22T09:47:55.410Z,95483.81
2018-04-22T09:50:22.939Z,95476.27
2018-04-22T09:52:50.475Z,95480.30
2018-04-22T09:55:18.093Z,95476.23
2018-04-22T09:57:45.627Z,95478.09
2018-04-22T10:00:18.611Z,95470.70
2018-04-22T10:02:49.015Z,95471.29
2018-04-22T10:08:16.718Z,95455.73
2018-04-22T10:10:44.252Z,95472.73
2018-04-22T10:13:11.820Z,95468.79
2018-04-22T10:15:39.357Z,95462.73
2018-04-22T10:18:06.940Z,95466.51
2018-04-22T10:20:34.509Z,95460.82
2018-04-22T10:23:02.050Z,95462.95
2018-04-22T10:25:29.612Z,95436.32
2018-04-22T10:27:57.171Z,95454.31
2018-04-22T10:30:24.739Z,95442.58
2018-04-22T10:32:52.267Z,95442.50
2018-04-22T10:35:19.845Z,95447.09
2018-04-22T10:37:47.397Z,95447.21
2018-04-22T10:40:14.967Z,95442.02
2018-04-22T10:42:42.530Z,95428.15
2018-04-22T10:45:10.079Z,95438.59
2018-04-22T10:47:37.656Z,95434.67
2018-04-22T10:50:05.228Z,95432.63
2018-04-22T10:52:32.779Z,95423.85
2018-04-22T10:55:01.153Z,95421.09
2018-04-22T10:57:28.692Z,95434.78
2018-04-22T10:59:56.266Z,95416.77
2018-04-22T11:02:23.870Z,95416.02
2018-04-22T11:04:51.406Z,95403.91
2018-04-22T11:07:19.035Z,95408.18
2018-04-22T11:09:46.579Z,95402.91
2018-04-22T11:12:14.142Z,95407.77
2018-04-22T11:14:41.980Z,95399.09
2018-04-22T11:17:09.567Z,95400.08
2018-04-22T11:19:37.130Z,95395.92
2018-04-22T11:22:04.662Z,95392.53
2018-04-22T11:24:32.271Z,95388.42
2018-04-22T11:26:59.806Z,95397.76
2018-04-22T11:29:27.352Z,95382.30
2018-04-22T11:31:54.927Z,95378.23
2018-04-22T11:34:22.505Z,95371.58
2018-04-22T11:36:50.094Z,95377.02
2018-04-22T11:39:17.633Z,95375.00
2018-04-22T11:41:45.203Z,95382.63
2018-04-22T11:44:12.743Z,95360.42
2018-04-22T11:46:40.314Z,95380.09
2018-04-22T11:49:07.924Z,95372.98
2018-04-22T11:51:35.512Z,95368.34
2018-04-22T11:54:04.020Z,95365.39
2018-04-22T11:56:31.565Z,95358.43
2018-04-22T11:58:59.139Z,95349.58
2018-04-22T12:01:26.707Z,95346.99
2018-04-22T12:03:54.253Z,95347.77
2018-04-22T12:06:21.825Z,95345.65
2018-04-22T12:08:49.366Z,95345.54
2018-04-22T12:11:16.916Z,95335.86
2018-04-22T12:13:44.493Z,95340.46
2018-04-22T12:16:12.088Z,95321.03
2018-04-22T12:18:39.620Z,95338.05
2018-04-22T12:21:07.179Z,95331.63
2018-04-22T12:23:34.720Z,95334.64
2018-04-22T12:26:02.321Z,95326.61
2018-04-22T12:28:29.851Z,95305.27
2018-04-22T12:30:57.433Z,95319.44
2018-04-22T12:33:24.955Z,95315.72
2018-04-22T12:35:52.492Z,95312.05
2018-04-22T12:38:20.020Z,95302.07
2018-04-22T12:40:47.574Z,95305.38
2018-04-22T12:43:15.116Z,95288.53
2018-04-22T12:45:42.642Z,95290.36
2018-04-22T12:48:10.188Z,95298.48
2018-04-22T12:50:37.711Z,95292.55
2018-04-22T12:53:05.244Z,95289.36
2018-04-22T12:55:33.058Z,95284.81
2018-04-22T12:58:00.640Z,95277.13
2018-04-22T13:00:28.191Z,95278.51
2018-04-22T13:02:55.710Z,95277.37
2018-04-22T13:05:23.267Z,95270.83
2018-04-22T13:07:50.864Z,95270.39
2018-04-22T13:10:18.397Z,95276.42
2018-04-22T13:12:45.938Z,95266.00
2018-04-22T13:15:13.477Z,95267.03
2018-04-22T13:17:41.007Z,95259.11
2018-04-22T13:20:08.550Z,95255.13
2018-04-22T13:22:36.107Z,95252.10
2018-04-22T13:25:03.660Z,95248.56
2018-04-22T13:27:31.246Z,95247.83
2018-04-22T13:29:58.782Z,95250.25
2018-04-22T13:32:26.336Z,95249.59
2018-04-22T13:34:53.885Z,95251.20
2018-04-22T13:37:21.447Z,95248.22
2018-04-22T13:39:49.020Z,95238.03
2018-04-22T13:42:16.555Z,95233.19
2018-04-22T13:44:44.101Z,95237.74
2018-04-22T13:47:11.642Z,95234.09
2018-04-22T13:49:39.164Z,95225.27
2018-04-22T13:52:06.726Z,95233.45
2018-04-22T13:54:34.307Z,95228.36
2018-04-22T13:57:01.855Z,95229.25
2018-04-22T13:59:29.396Z,95223.23
2018-04-22T14:01:57.013Z,95227.41
2018-04-22T14:04:24.816Z,95218.56
2018-04-22T14:06:52.353Z,95225.52
2018-04-22T14:09:19.887Z,95217.98
2018-04-22T14:11:48.063Z,95215.89
2018-04-22T14:14:15.607Z,95212.97
2018-04-22T14:16:43.155Z,95215.70
2018-04-22T14:19:10.727Z,95208.31
2018-04-22T14:21:38.286Z,95214.50
2018-04-22T14:24:05.877Z,95212.32
2018-04-22T14:26:33.477Z,95215.50
2018-04-22T14:29:01.042Z,95211.65
2018-04-22T14:31:28.624Z,95207.64
2018-04-22T14:33:56.227Z,95208.52
2018-04-22T14:36:23.763Z,95208.94
2018-04-22T14:38:51.314Z,95206.12
2018-04-22T14:41:18.856Z,95209.17
2018-04-22T14:43:58.084Z,95208.94
2018-04-22T14:46:25.667Z,95209.78
2018-04-22T14:49:04.960Z,95200.02
2018-04-22T14:51:32.505Z,95202.76
2018-04-22T14:54:00.056Z,95192.93
2018-04-22T14:56:27.655Z,95198.91
2018-04-22T14:58:55.212Z,95204.09
2018-04-22T15:01:22.862Z,95203.91
2018-04-22T15:03:50.433Z,95203.70
2018-04-22T15:06:17.996Z,95172.70
2018-04-22T15:08:45.536Z,95202.99
2018-04-22T15:11:13.348Z,95191.95
2018-04-22T15:13:40.893Z,95204.41
2018-04-22T15:16:08.445Z,95198.87
2018-04-22T15:18:36.020Z,95204.41
2018-04-22T15:21:03.547Z,95199.09
2018-04-22T15:23:31.083Z,95203.18
2018-04-22T15:25:58.923Z,95188.97
2018-04-22T15:28:27.501Z,95206.85
2018-04-22T15:30:55.037Z,95199.15
2018-04-22T15:33:22.629Z,95199.20
2018-04-22T15:35:50.219Z,95192.61
2018-04-22T15:38:17.765Z,95190.50
2018-04-22T15:40:45.327Z,95185.98
2018-04-22T15:43:12.874Z,95198.27
2018-04-22T15:45:40.415Z,95188.56
2018-04-22T15:48:08.366Z,95179.75
2018-04-22T15:50:35.892Z,95196.58
2018-04-22T15:53:03.523Z,95192.91
2018-04-22T15:55:31.068Z,95188.56
2018-04-22T15:57:58.612Z,95183.73
2018-04-22T16:00:26.135Z,95187.80
2018-04-22T16:02:54.043Z,95188.43
2018-04-22T16:05:21.588Z,95190.18
2018-04-22T16:07:49.119Z,95183.73
2018-04-22T16:10:16.671Z,95181.78
2018-04-22T16:12:44.244Z,95184.67
2018-04-22T16:15:11.775Z,95191.10
2018-04-22T16:17:39.311Z,95191.16
2018-04-22T16:20:06.857Z,95196.03
2018-04-22T16:22:34.392Z,95191.77
2018-04-22T16:25:01.932Z,95196.42
2018-04-22T16:27:29.456Z,95199.20
2018-04-22T16:29:57.046Z,95198.99
2018-04-22T16:32:24.685Z,95203.45
2018-04-22T16:34:52.226Z,95206.09
2018-04-22T16:37:19.792Z,95178.65
2018-04-22T16:39:47.384Z,95204.05
2018-04-22T16:42:14.928Z,95198.23
2018-04-22T16:44:42.473Z,95201.77
2018-04-22T16:47:10.005Z,95206.77
2018-04-22T16:49:37.815Z,95207.93
2018-04-22T16:52:05.392Z,95210.59
2018-04-22T16:54:32.987Z,95215.94
2018-04-22T16:57:01.149Z,95204.24
2018-04-22T16:59:28.963Z,95216.86
2018-04-22T17:01:56.697Z,95219.48
2018-04-22T17:04:24.229Z,95222.39
2018-04-22T17:06:51.771Z,95222.98
2018-04-22T17:09:19.328Z,95220.33
2018-04-22T17:11:47.094Z,95226.62
2018-04-22T17:14:14.675Z,95227.27
2018-04-22T17:16:42.217Z,95231.72
2018-04-22T17:19:09.761Z,95227.44
2018-04-22T17:21:37.291Z,95240.05
2018-04-22T17:24:05.795Z,95234.20
2018-04-22T17:26:33.308Z,95238.94
2018-04-22T17:29:00.838Z,95251.70
2018-04-22T17:31:28.403Z,95255.72
2018-04-22T17:33:55.992Z,95254.73
2018-04-22T17:36:23.540Z,95261.16
2018-04-22T17:38:51.097Z,95259.50
2018-04-22T17:41:18.700Z,95247.66
2018-04-22T17:43:46.248Z,95260.37
2018-04-22T17:46:13.788Z,95260.81
2018-04-22T17:48:41.328Z,95260.94
2018-04-22T17:51:08.868Z,95262.95
2018-04-22T17:53:36.406Z,95273.75
2018-04-22T17:56:03.965Z,95273.94
2018-04-22T17:58:31.512Z,95268.93
2018-04-22T18:00:59.078Z,95283.85
2018-04-22T18:03:26.639Z,95309.62
2018-04-22T18:05:54.191Z,95297.37
2018-04-22T18:08:21.740Z,95297.23
2018-04-22T18:10:49.314Z,95299.80
2018-04-22T18:13:16.859Z,95304.81
2018-04-22T18:15:44.429Z,95315.69
2018-04-22T18:18:11.969Z,95311.72
2018-04-22T18:20:39.557Z,95314.87
2018-04-22T18:23:07.092Z,95321.64
2018-04-22T18:25:34.629Z,95320.91
2018-04-22T18:28:02.170Z,95314.05
2018-04-22T18:30:29.712Z,95318.16
2018-04-22T18:32:57.243Z,95317.77
2018-04-22T18:35:24.913Z,95318.45
2018-04-22T18:37:52.459Z,95313.84
2018-04-22T18:40:20.017Z,95326.78
2018-04-22T18:42:48.490Z,95319.23
2018-04-22T18:45:16.028Z,95323.27
2018-04-22T18:47:43.566Z,95318.75
2018-04-22T18:50:11.102Z,95333.09
2018-04-22T18:52:38.635Z,95335.49
2018-04-22T18:55:06.164Z,95328.02
2018-04-22T18:57:33.712Z,95334.81
2018-04-22T19:00:01.248Z,95329.35
2018-04-22T19:02:28.821Z,95330.97
2018-04-22T19:04:56.361Z,95338.69
2018-04-22T19:07:23.933Z,95334.21
2018-04-22T19:09:51.468Z,95333.05
2018-04-22T19:12:19.006Z,95329.34
2018-04-22T19:14:46.558Z,95323.13
2018-04-22T19:17:14.167Z,95330.80
2018-04-22T19:19:41.659Z,95303.13
2018-04-22T19:22:09.235Z,95337.67
2018-04-22T19:24:36.808Z,95339.85
2018-04-22T19:27:04.350Z,95342.27
2018-04-22T19:29:31.913Z,95326.05
2018-04-22T19:32:00.404Z,95339.17
2018-04-22T19:34:28.911Z,95341.73
2018-04-22T19:36:56.479Z,95337.06
2018-04-22T19:39:24.071Z,95336.92
2018-04-22T19:41:51.617Z,95339.28
2018-04-22T19:44:19.167Z,95336.19
2018-04-22T19:46:46.704Z,95336.37
2018-04-22T19:49:14.254Z,95338.38
2018-04-22T19:51:41.807Z,95351.34
2018-04-22T19:54:09.378Z,95336.45
2018-04-22T19:56:36.899Z,95337.06
2018-04-22T19:59:04.422Z,95341.39
2018-04-22T20:01:32.005Z,95345.14
2018-04-22T20:03:59.531Z,95343.02
2018-04-22T20:06:29.958Z,95349.52
2018-04-22T20:08:57.507Z,95355.22
2018-04-22T20:11:25.088Z,95347.98
2018-04-22T20:13:52.687Z,95352.97
2018-04-22T20:16:20.235Z,95351.21
2018-04-22T20:18:47.815Z,95355.73
2018-04-22T20:21:15.353Z,95352.20
2018-04-22T20:23:42.928Z,95353.78
2018-04-22T20:26:10.705Z,95338.09
2018-04-22T20:28:38.264Z,95354.14
2018-04-22T20:31:05.804Z,95361.20
2018-04-22T20:33:33.334Z,95356.10
2018-04-22T20:36:00.908Z,95357.63
2018-04-22T20:38:28.471Z,95358.83
2018-04-22T20:40:56.007Z,95362.33
2018-04-22T20:43:23.557Z,95363.88
2018-04-22T20:45:51.097Z,95361.33
2018-04-22T20:48:18.633Z,95366.76
2018-04-22T20:50:46.215Z,95365.72
2018-04-22T20:53:13.766Z,95376.13
2018-04-22T20:55:41.313Z,95376.59
2018-04-22T20:58:08.900Z,95380.38
2018-04-22T21:00:36.477Z,95380.19
2018-04-22T21:03:04.017Z,95375.34
2018-04-22T21:05:31.565Z,95382.12
2018-04-22T21:07:59.091Z,95375.51
2018-04-22T21:10:26.640Z,95377.00
2018-04-22T21:12:54.233Z,95374.50
2018-04-22T21:15:21.781Z,95381.38
2018-04-22T21:17:49.324Z,95386.99
2018-04-22T21:20:16.901Z,95386.09
2018-04-22T21:22:44.443Z,95386.09
2018-04-22T21:25:11.974Z,95388.00
2018-04-22T21:27:39.498Z,95392.95
2018-04-22T21:30:07.084Z,95393.40
2018-04-22T21:32:34.655Z,95397.58
2018-04-22T21:35:02.186Z,95398.53
2018-04-22T21:37:29.723Z,95395.36
2018-04-22T21:39:57.251Z,95392.09
2018-04-22T21:42:24.793Z,95400.42
2018-04-22T21:44:52.363Z,95399.64
2018-04-22T21:47:20.715Z,95405.09
2018-04-22T21:49:48.244Z,95399.00
2018-04-22T21:52:15.815Z,95403.51
2018-04-22T21:54:43.342Z,95404.83
2018-04-22T21:57:10.873Z,95405.88
2018-04-22T21:59:38.404Z,95403.66
2018-04-22T22:02:05.959Z,95400.11
2018-04-22T22:04:33.495Z,95399.45
2018-04-22T22:07:01.044Z,95400.42
2018-04-22T22:09:28.575Z,95401.15
2018-04-22T22:11:56.117Z,95383.59
2018-04-22T22:14:23.652Z,95387.14
2018-04-22T22:16:51.954Z,95382.39
2018-04-22T22:19:19.483Z,95398.64
2018-04-22T22:21:47.010Z,95398.73
2018-04-22T22:24:14.575Z,95392.20
2018-04-22T22:26:42.108Z,95385.91
2018-04-22T22:29:09.675Z,95394.56
2018-04-22T22:31:37.208Z,95392.22
2018-04-22T22:34:04.744Z,95402.77
2018-04-22T22:36:32.307Z,95403.77
2018-04-22T22:39:00.063Z,95399.48
2018-04-22T22:41:27.608Z,95397.97
2018-04-22T22:43:55.164Z,95399.84
2018-04-22T22:46:22.798Z,95399.02
2018-04-22T22:48:50.347Z,95399.73
2018-04-22T22:51:17.887Z,95398.79
2018-04-22T22:53:45.475Z,95392.14
2018-04-22T22:56:13.016Z,95391.31
2018-04-22T22:58:40.588Z,95389.05
2018-04-22T23:01:08.156Z,95379.25
2018-04-22T23:03:35.688Z,95397.61
2018-04-22T23:06:03.224Z,95389.37
2018-04-22T23:08:30.760Z,95388.63
2018-04-22T23:10:58.303Z,95390.28
2018-04-22T23:13:25.866Z,95387.58
2018-04-22T23:15:53.392Z,95384.95
2018-04-22T23:18:20.968Z,95385.30
2018-04-22T23:20:48.507Z,95389.33
2018-04-22T23:23:16.074Z,95388.56
2018-04-22T23:25:43.608Z,95384.88
2018-04-22T23:28:11.153Z,95390.25
2018-04-22T23:30:38.727Z,95388.69
2018-04-22T23:33:06.259Z,95391.27
2018-04-22T23:35:33.841Z,95397.05
2018-04-22T23:38:01.372Z,95392.41
2018-04-22T23:40:28.905Z,95389.09
2018-04-22T23:42:56.430Z,95388.88
2018-04-22T23:45:23.961Z,95390.53
2018-04-22T23:47:51.520Z,95388.83
2018-04-22T23:50:19.091Z,95388.13
2018-04-22T23:52:46.644Z,95397.23
2018-04-22T23:55:14.188Z,95391.20
2018-04-22T23:57:41.794Z,95387.68
